Terminal Aerodrome Forecast
Issued by NWS

Home | Current Version | Previous Version | Text Only | Print | Product List | Glossary On
Versions: 1 2 3 4 5 6 7 8 9 10 11 12 13 14 15 16 17 18 19 20 21 22 23 24 25 26 27 28
990
FTUS44 KMOB 271121
TAFBFM
TAF
KBFM 271121Z 2712/2812 02006KT P6SM SCT010 BKN120
     FM271500 04010KT P6SM VCSH SCT040 BKN120
     FM271800 04014KT P6SM VCTS SCT030CB BKN120
      TEMPO 2719/2723 VRB15G25KT 4SM TSRA BKN025CB
     FM280300 01009KT P6SM SCT050 BKN100
     FM281000 02012G20KT P6SM RA OVC015=

USA.gov is the U.S. government's official web portal to all federal, state and local government web resources and services.